createdAt,value
2022-08-27T00:01:38.162Z,100387.41
2022-08-27T00:04:05.057Z,100381.25
2022-08-27T00:06:32.039Z,100380.44
2022-08-27T00:09:00.001Z,100390.09
2022-08-27T00:11:26.959Z,100380.44
2022-08-27T00:13:54.030Z,100386.78
2022-08-27T00:16:21.042Z,100381.97
2022-08-27T00:18:48.588Z,100385.16
2022-08-27T00:21:17.321Z,100379.31
2022-08-27T00:23:44.528Z,100379.00
2022-08-27T00:26:12.152Z,100374.06
2022-08-27T00:28:40.042Z,100375.50
2022-08-27T00:31:07.342Z,100371.19
2022-08-27T00:33:34.982Z,100374.06
2022-08-27T00:36:05.196Z,100365.66
2022-08-27T00:38:32.299Z,100363.19
2022-08-27T00:41:01.132Z,100360.72
2022-08-27T00:43:32.614Z,100363.63
2022-08-27T00:46:14.586Z,100359.72
2022-08-27T00:48:41.566Z,100361.97
2022-08-27T00:51:08.583Z,100361.78
2022-08-27T00:53:36.392Z,100361.28
2022-08-27T00:56:13.319Z,100364.84
2022-08-27T00:58:45.372Z,100360.91
2022-08-27T01:01:17.746Z,100351.47
2022-08-27T01:03:48.201Z,100353.50
2022-08-27T01:06:17.285Z,100348.19
2022-08-27T01:08:59.654Z,100347.97
2022-08-27T01:11:26.641Z,100349.84
2022-08-27T01:14:00.049Z,100351.06
2022-08-27T01:16:35.853Z,100353.53
2022-08-27T01:19:08.721Z,100344.69
2022-08-27T01:22:11.128Z,100345.34
2022-08-27T01:24:50.713Z,100344.91
2022-08-27T01:27:21.858Z,100341.03
2022-08-27T01:29:49.181Z,100341.88
2022-08-27T01:32:24.142Z,100334.47
2022-08-27T01:34:51.543Z,100340.59
2022-08-27T01:37:23.956Z,100340.84
2022-08-27T01:39:52.542Z,100346.34
2022-08-27T01:42:23.720Z,100344.97
2022-08-27T01:45:05.637Z,100345.97
2022-08-27T01:47:33.985Z,100349.41
2022-08-27T01:50:03.985Z,100342.66
2022-08-27T01:52:31.445Z,100347.78
2022-08-27T01:54:59.054Z,100350.63
2022-08-27T01:57:26.451Z,100350.84
2022-08-27T01:59:56.893Z,100359.69
2022-08-27T02:02:23.996Z,100354.75
2022-08-27T02:04:51.684Z,100353.13
2022-08-27T02:07:18.998Z,100348.19
2022-08-27T02:09:45.949Z,100347.78
2022-08-27T02:12:12.836Z,100350.00
2022-08-27T02:14:39.754Z,100338.75
2022-08-27T02:17:06.640Z,100342.03
2022-08-27T02:19:33.580Z,100342.84
2022-08-27T02:22:00.716Z,100335.06
2022-08-27T02:24:29.016Z,100342.84
2022-08-27T02:26:57.125Z,100342.00
2022-08-27T02:29:25.678Z,100339.78
2022-08-27T02:31:52.714Z,100341.22
2022-08-27T02:34:19.725Z,100342.22
2022-08-27T02:36:47.503Z,100347.16
2022-08-27T02:39:14.389Z,100349.63
2022-08-27T02:41:41.297Z,100346.72
2022-08-27T02:44:10.280Z,100342.22
2022-08-27T02:46:39.510Z,100344.88
2022-08-27T02:49:06.492Z,100346.50
2022-08-27T02:51:33.693Z,100345.06
2022-08-27T02:54:02.422Z,100346.09
2022-08-27T02:56:30.308Z,100343.84
2022-08-27T02:58:57.760Z,100347.97
2022-08-27T03:01:24.775Z,100347.13
2022-08-27T03:03:52.489Z,100340.16
2022-08-27T03:06:19.469Z,100335.44
2022-08-27T03:08:52.661Z,100341.97
2022-08-27T03:11:23.005Z,100335.81
2022-08-27T03:13:50.765Z,100334.81
2022-08-27T03:16:17.778Z,100334.78
2022-08-27T03:18:45.323Z,100330.09
2022-08-27T03:21:21.336Z,100332.50
2022-08-27T03:23:51.405Z,100335.56
2022-08-27T03:26:19.777Z,100345.81
2022-08-27T03:28:47.814Z,100341.94
2022-08-27T03:31:27.058Z,100337.22
2022-08-27T03:34:07.383Z,100337.47
2022-08-27T03:36:34.248Z,100343.19
2022-08-27T03:39:01.118Z,100337.03
2022-08-27T03:41:54.230Z,100342.75
2022-08-27T03:44:21.306Z,100335.38
2022-08-27T03:46:50.272Z,100345.19
2022-08-27T03:49:20.323Z,100346.63
2022-08-27T03:51:51.375Z,100350.50
2022-08-27T03:54:18.749Z,100347.19
2022-08-27T03:56:45.583Z,100347.84
2022-08-27T03:59:12.627Z,100335.69
2022-08-27T04:01:39.522Z,100335.50
2022-08-27T04:04:06.794Z,100344.16
2022-08-27T04:06:35.398Z,100346.41
2022-08-27T04:09:04.002Z,100342.66
2022-08-27T04:11:34.378Z,100347.97
2022-08-27T04:14:06.929Z,100342.69
2022-08-27T04:16:48.045Z,100347.13
2022-08-27T04:19:17.763Z,100356.16
2022-08-27T04:21:44.614Z,100355.13
2022-08-27T04:24:12.093Z,100361.31
2022-08-27T04:26:42.530Z,100349.63
2022-08-27T04:29:09.565Z,100355.16
2022-08-27T04:31:36.433Z,100358.50
2022-08-27T04:34:04.968Z,100357.06
2022-08-27T04:36:31.808Z,100357.69
2022-08-27T04:38:58.727Z,100355.84
2022-08-27T04:41:27.482Z,100366.91
2022-08-27T04:43:57.656Z,100369.97
2022-08-27T04:46:28.921Z,100378.81
2022-08-27T04:48:58.460Z,100374.28
2022-08-27T04:51:26.948Z,100374.47
2022-08-27T04:53:54.201Z,100375.50
2022-08-27T04:56:23.680Z,100383.91
2022-08-27T04:58:53.357Z,100380.44
2022-08-27T05:01:27.397Z,100384.53
2022-08-27T05:03:55.507Z,100378.81
2022-08-27T05:06:23.182Z,100386.16
2022-08-27T05:08:52.365Z,100381.88
2022-08-27T05:11:21.509Z,100382.91
2022-08-27T05:13:48.556Z,100388.22
2022-08-27T05:16:21.984Z,100384.16
2022-08-27T05:18:51.605Z,100383.13
2022-08-27T05:21:30.986Z,100382.09
2022-08-27T05:24:02.043Z,100376.38
2022-08-27T05:26:30.696Z,100377.88
2022-08-27T05:29:00.476Z,100379.41
2022-08-27T05:31:28.387Z,100380.25
2022-08-27T05:33:57.001Z,100378.81
2022-08-27T05:36:31.514Z,100383.91
2022-08-27T05:39:01.210Z,100383.13
2022-08-27T05:41:34.101Z,100381.06
2022-08-27T05:44:30.247Z,100375.94
2022-08-27T05:46:56.199Z,100375.38
2022-08-27T05:49:23.131Z,100378.00
2022-08-27T05:51:50.068Z,100372.44
2022-08-27T05:54:21.162Z,100380.00
2022-08-27T05:56:49.753Z,100382.50
2022-08-27T05:59:35.816Z,100377.34
2022-08-27T06:02:05.920Z,100380.63
2022-08-27T06:04:32.910Z,100390.59
2022-08-27T06:06:59.735Z,100384.75
2022-08-27T06:09:29.297Z,100385.78
2022-08-27T06:11:58.562Z,100393.78
2022-08-27T06:14:26.384Z,100387.03
2022-08-27T06:16:53.287Z,100390.31
2022-08-27T06:19:20.232Z,100390.97
2022-08-27T06:22:01.245Z,100390.97
2022-08-27T06:24:36.400Z,100388.31
2022-08-27T06:27:03.390Z,100389.94
2022-08-27T06:29:30.261Z,100391.38
2022-08-27T06:31:57.119Z,100395.41
2022-08-27T06:34:24.081Z,100389.25
2022-08-27T06:36:50.955Z,100393.94
2022-08-27T06:39:17.858Z,100397.66
2022-08-27T06:41:45.489Z,100391.69
2022-08-27T06:44:13.963Z,100387.63
2022-08-27T06:46:42.784Z,100400.75
2022-08-27T06:49:10.587Z,100395.41
2022-08-27T06:51:40.165Z,100396.28
2022-08-27T06:54:11.892Z,100398.97
2022-08-27T06:56:40.147Z,100412.66
2022-08-27T06:59:11.737Z,100400.63
2022-08-27T07:01:42.475Z,100401.22
2022-08-27T07:04:16.625Z,100405.50
2022-08-27T07:06:44.036Z,100412.50
2022-08-27T07:09:11.150Z,100414.94
2022-08-27T07:11:38.785Z,100412.91
2022-08-27T07:14:07.116Z,100420.53
2022-08-27T07:16:34.414Z,100415.16
2022-08-27T07:19:05.059Z,100420.50
2022-08-27T07:21:34.177Z,100416.81
2022-08-27T07:24:05.073Z,100412.50
2022-08-27T07:26:39.288Z,100412.72
2022-08-27T07:29:09.206Z,100422.97
2022-08-27T07:31:36.142Z,100417.47
2022-08-27T07:34:04.636Z,100415.41
2022-08-27T07:36:32.649Z,100419.50
2022-08-27T07:39:01.159Z,100426.13
2022-08-27T07:41:53.233Z,100428.59
2022-08-27T07:44:28.031Z,100429.84
2022-08-27T07:46:58.707Z,100425.75
2022-08-27T07:49:28.585Z,100433.16
2022-08-27T07:51:55.612Z,100437.28
2022-08-27T07:54:23.114Z,100437.44
2022-08-27T07:56:55.123Z,100437.88
2022-08-27T07:59:24.329Z,100442.00
2022-08-27T08:01:52.410Z,100442.59
2022-08-27T08:04:20.635Z,100440.13
2022-08-27T08:06:48.963Z,100443.03
2022-08-27T08:09:16.030Z,100442.38
2022-08-27T08:11:42.958Z,100447.97
2022-08-27T08:14:09.951Z,100453.47
2022-08-27T08:16:36.856Z,100450.78
2022-08-27T08:19:04.014Z,100457.38
2022-08-27T08:21:30.934Z,100454.91
2022-08-27T08:23:58.152Z,100460.25
2022-08-27T08:26:25.065Z,100453.47
2022-08-27T08:28:52.087Z,100458.59
2022-08-27T08:31:19.105Z,100450.00
2022-08-27T08:33:47.989Z,100454.09
2022-08-27T08:36:17.176Z,100458.78
2022-08-27T08:38:47.227Z,100455.94
2022-08-27T08:41:49.198Z,100455.94
2022-08-27T08:44:36.554Z,100458.19
2022-08-27T08:47:12.370Z,100463.94
2022-08-27T08:50:22.859Z,100460.22
2022-08-27T08:53:29.725Z,100459.44
2022-08-27T08:56:02.685Z,100461.72
2022-08-27T08:58:51.953Z,100461.28
2022-08-27T09:01:21.750Z,100459.63
2022-08-27T09:04:04.677Z,100455.88
2022-08-27T09:07:28.211Z,100462.00
2022-08-27T09:10:04.144Z,100465.66
2022-08-27T09:12:33.195Z,100461.72
2022-08-27T09:15:05.906Z,100455.56
2022-08-27T09:17:36.635Z,100471.66
2022-08-27T09:20:05.494Z,100459.34
2022-08-27T09:23:04.858Z,100464.44
2022-08-27T09:25:36.725Z,100462.69
2022-08-27T09:28:33.978Z,100461.22
2022-08-27T09:31:09.565Z,100473.56
2022-08-27T09:33:54.798Z,100464.72
2022-08-27T09:36:25.028Z,100469.72
2022-08-27T09:39:01.764Z,100474.19
2022-08-27T09:41:35.615Z,100470.34
2022-08-27T09:44:11.791Z,100472.09
2022-08-27T09:46:39.349Z,100471.38
2022-08-27T09:49:15.514Z,100475.19
2022-08-27T09:51:46.710Z,100479.59
2022-08-27T09:54:41.265Z,100480.88
2022-08-27T09:57:10.846Z,100486.84
2022-08-27T09:59:49.805Z,100479.91
2022-08-27T10:02:21.312Z,100472.47
2022-08-27T10:04:52.607Z,100469.97
2022-08-27T10:07:31.691Z,100469.91
2022-08-27T10:10:13.433Z,100461.06
2022-08-27T10:13:17.474Z,100454.91
2022-08-27T10:16:18.113Z,100468.47
2022-08-27T10:19:04.999Z,100469.13
2022-08-27T10:22:05.683Z,100461.13
2022-08-27T10:24:55.505Z,100454.47
2022-08-27T10:27:46.888Z,100463.69
2022-08-27T10:30:44.044Z,100465.00
2022-08-27T10:33:23.708Z,100463.47
2022-08-27T10:36:23.322Z,100461.59
2022-08-27T10:39:05.987Z,100467.94
2022-08-27T10:41:44.780Z,100464.91
2022-08-27T10:44:37.692Z,100469.81
2022-08-27T10:47:15.860Z,100469.69
2022-08-27T10:50:01.930Z,100466.19
2022-08-27T10:52:40.960Z,100480.56
2022-08-27T10:55:32.447Z,100469.19
2022-08-27T10:59:08.704Z,100466.63
2022-08-27T11:02:11.274Z,100467.63
2022-08-27T11:04:48.878Z,100466.22
2022-08-27T11:07:30.790Z,100467.84
2022-08-27T11:10:05.011Z,100466.53
2022-08-27T11:12:38.828Z,100461.13
2022-08-27T11:15:14.487Z,100464.75
2022-08-27T11:17:45.695Z,100450.72
2022-08-27T11:20:26.194Z,100455.13
2022-08-27T11:22:58.048Z,100461.56
2022-08-27T11:25:52.964Z,100462.66
2022-08-27T11:28:29.824Z,100452.19
2022-08-27T11:31:38.321Z,100459.63
2022-08-27T11:34:52.490Z,100455.63
2022-08-27T11:37:28.987Z,100450.00
2022-08-27T11:40:18.804Z,100453.63
2022-08-27T11:43:03.118Z,100451.41
2022-08-27T11:45:38.594Z,100453.78
2022-08-27T11:48:29.475Z,100450.78
2022-08-27T11:51:04.973Z,100450.28
2022-08-27T11:53:42.795Z,100451.34
2022-08-27T11:56:40.378Z,100437.22
2022-08-27T11:59:28.061Z,100440.50
2022-08-27T12:01:58.968Z,100437.22
2022-08-27T12:04:31.846Z,100436.38
2022-08-27T12:07:13.959Z,100436.75
2022-08-27T12:10:08.963Z,100432.19
2022-08-27T12:13:07.375Z,100436.75
2022-08-27T12:15:57.332Z,100440.22
2022-08-27T12:18:49.676Z,100431.25
2022-08-27T12:21:45.136Z,100423.91
2022-08-27T12:24:49.429Z,100427.88
2022-08-27T12:27:22.018Z,100427.06
2022-08-27T12:29:55.665Z,100430.91
2022-08-27T12:32:41.535Z,100420.88
2022-08-27T12:35:10.988Z,100422.31
2022-08-27T12:37:57.776Z,100419.78
2022-08-27T12:41:03.729Z,100419.88
2022-08-27T12:43:34.914Z,100415.78
2022-08-27T12:46:16.202Z,100409.75
2022-08-27T12:48:50.651Z,100415.22
2022-08-27T12:51:31.216Z,100406.22
2022-08-27T12:54:35.416Z,100406.09
2022-08-27T12:57:32.475Z,100406.09
2022-08-27T13:00:18.678Z,100404.69
2022-08-27T13:02:51.133Z,100405.88
2022-08-27T13:05:21.560Z,100401.75
2022-08-27T13:07:51.361Z,100399.66
2022-08-27T13:10:29.220Z,100396.81
2022-08-27T13:13:10.367Z,100399.41
2022-08-27T13:15:48.334Z,100396.38
2022-08-27T13:18:17.037Z,100400.16
2022-08-27T13:20:46.980Z,100389.84
2022-08-27T13:23:23.845Z,100386.72
2022-08-27T13:26:10.215Z,100387.41
2022-08-27T13:28:40.840Z,100390.03
2022-08-27T13:31:10.215Z,100385.94
2022-08-27T13:33:40.272Z,100381.88
2022-08-27T13:36:09.564Z,100391.19
2022-08-27T13:38:49.292Z,100386.50
2022-08-27T13:41:33.216Z,100379.88
2022-08-27T13:44:13.052Z,100387.91
2022-08-27T13:46:49.096Z,100391.28
2022-08-27T13:49:24.688Z,100386.00
2022-08-27T13:52:09.151Z,100387.16
2022-08-27T13:54:36.418Z,100377.03
2022-08-27T13:57:09.833Z,100387.41
2022-08-27T13:59:43.030Z,100383.47
2022-08-27T14:02:10.316Z,100377.84
2022-08-27T14:04:49.058Z,100378.91
2022-08-27T14:07:18.628Z,100376.81
2022-08-27T14:10:02.389Z,100375.78
2022-08-27T14:12:40.646Z,100379.97
2022-08-27T14:15:41.529Z,100374.16
2022-08-27T14:18:54.955Z,100381.84
2022-08-27T14:21:18.818Z,100376.63
2022-08-27T14:23:45.868Z,100390.19
2022-08-27T14:26:14.738Z,100374.13
2022-08-27T14:28:42.539Z,100384.41
2022-08-27T14:31:09.546Z,100378.59
2022-08-27T14:33:36.530Z,100377.91
2022-08-27T14:36:03.887Z,100380.47
2022-08-27T14:38:32.435Z,100378.16
2022-08-27T14:41:00.205Z,100376.03
2022-08-27T14:43:27.281Z,100380.69
2022-08-27T14:45:55.158Z,100368.22
2022-08-27T14:48:28.839Z,100375.69
2022-08-27T14:50:57.769Z,100375.59
2022-08-27T14:53:26.344Z,100375.22
2022-08-27T14:55:54.553Z,100376.41
2022-08-27T14:58:21.988Z,100380.03
2022-08-27T15:00:49.298Z,100389.03
2022-08-27T15:03:16.240Z,100386.28
2022-08-27T15:05:43.151Z,100381.50
2022-08-27T15:08:13.242Z,100372.88
2022-08-27T15:10:40.410Z,100376.88
2022-08-27T15:13:09.431Z,100376.84
2022-08-27T15:15:36.353Z,100378.63
2022-08-27T15:18:03.596Z,100371.50
2022-08-27T15:20:30.701Z,100375.88
2022-08-27T15:22:58.695Z,100371.09
2022-08-27T15:25:25.982Z,100372.84
2022-08-27T15:27:54.307Z,100372.25
2022-08-27T15:30:26.705Z,100377.13
2022-08-27T15:32:54.593Z,100379.41
2022-08-27T15:35:26.700Z,100368.41
2022-08-27T15:37:56.195Z,100367.91
2022-08-27T15:40:25.499Z,100362.31
2022-08-27T15:42:58.423Z,100372.16
2022-08-27T15:45:27.554Z,100369.06
2022-08-27T15:47:56.336Z,100367.53
2022-08-27T15:50:24.526Z,100369.09
2022-08-27T15:52:56.187Z,100372.06
2022-08-27T15:55:28.479Z,100373.97
2022-08-27T15:57:55.507Z,100373.97
2022-08-27T16:00:24.277Z,100372.41
2022-08-27T16:02:52.737Z,100368.38
2022-08-27T16:05:21.950Z,100379.63
2022-08-27T16:07:49.416Z,100377.13
2022-08-27T16:10:16.622Z,100371.66
2022-08-27T16:12:44.465Z,100375.03
2022-08-27T16:15:12.151Z,100374.69
2022-08-27T16:17:39.312Z,100369.09
2022-08-27T16:20:08.912Z,100371.69
2022-08-27T16:22:36.074Z,100372.19
2022-08-27T16:25:05.735Z,100374.81
2022-08-27T16:27:33.260Z,100383.81
2022-08-27T16:30:00.296Z,100381.41
2022-08-27T16:32:28.845Z,100375.97
2022-08-27T16:34:56.253Z,100375.66
2022-08-27T16:37:24.978Z,100373.50
2022-08-27T16:39:51.931Z,100381.56
2022-08-27T16:42:19.034Z,100381.31
2022-08-27T16:44:45.922Z,100383.50
2022-08-27T16:47:13.085Z,100373.66
2022-08-27T16:49:58.569Z,100375.31
2022-08-27T16:52:25.691Z,100379.13
2022-08-27T16:54:52.831Z,100369.47
2022-08-27T16:57:19.841Z,100382.84
2022-08-27T16:59:46.736Z,100380.06
2022-08-27T17:02:30.081Z,100377.94
2022-08-27T17:05:12.242Z,100381.56
2022-08-27T17:07:48.192Z,100379.41
2022-08-27T17:10:20.120Z,100386.06
2022-08-27T17:12:48.231Z,100379.81
2022-08-27T17:15:18.319Z,100385.94
2022-08-27T17:17:46.162Z,100381.69
2022-08-27T17:20:14.953Z,100384.56
2022-08-27T17:22:42.287Z,100392.88
2022-08-27T17:25:10.301Z,100396.50
2022-08-27T17:27:37.296Z,100396.75
2022-08-27T17:30:05.730Z,100389.19
2022-08-27T17:32:37.633Z,100394.91
2022-08-27T17:35:07.297Z,100390.59
2022-08-27T17:37:34.793Z,100393.53
2022-08-27T17:40:02.035Z,100396.56
2022-08-27T17:42:29.596Z,100395.84
2022-08-27T17:44:56.985Z,100398.31
2022-08-27T17:47:24.891Z,100393.22
2022-08-27T17:49:52.676Z,100405.94
2022-08-27T17:52:20.459Z,100410.41
2022-08-27T17:54:52.004Z,100405.72
2022-08-27T17:57:23.329Z,100400.81
2022-08-27T17:59:51.127Z,100408.47
2022-08-27T18:02:39.818Z,100411.13
2022-08-27T18:05:13.137Z,100411.00
2022-08-27T18:07:42.290Z,100414.53
2022-08-27T18:10:13.473Z,100420.75
2022-08-27T18:12:42.065Z,100423.41
2022-08-27T18:15:28.899Z,100428.75
2022-08-27T18:17:57.249Z,100423.44
2022-08-27T18:20:28.357Z,100432.03
2022-08-27T18:22:55.808Z,100430.22
2022-08-27T18:25:26.730Z,100435.34
2022-08-27T18:27:58.712Z,100436.19
2022-08-27T18:30:26.511Z,100446.28
2022-08-27T18:32:54.036Z,100445.84
2022-08-27T18:35:29.390Z,100453.66
2022-08-27T18:37:56.405Z,100451.63
2022-08-27T18:40:32.155Z,100451.25
2022-08-27T18:42:59.208Z,100457.19
2022-08-27T18:45:28.787Z,100458.41
2022-08-27T18:47:59.204Z,100455.13
2022-08-27T18:50:27.416Z,100463.13
2022-08-27T18:52:56.413Z,100461.09
2022-08-27T18:55:27.522Z,100470.53
2022-08-27T18:57:54.479Z,100477.94
2022-08-27T19:00:21.852Z,100474.19
2022-08-27T19:02:52.702Z,100478.94
2022-08-27T19:05:25.305Z,100479.94
2022-08-27T19:07:54.516Z,100480.78
2022-08-27T19:10:21.666Z,100482.00
2022-08-27T19:12:48.899Z,100492.25
2022-08-27T19:15:16.103Z,100492.69
2022-08-27T19:17:47.625Z,100486.50
2022-08-27T19:20:17.311Z,100482.81
2022-08-27T19:22:45.210Z,100489.38
2022-08-27T19:25:13.265Z,100486.50
2022-08-27T19:27:40.489Z,100486.94
2022-08-27T19:30:08.500Z,100490.00
2022-08-27T19:32:35.465Z,100492.25
2022-08-27T19:35:02.361Z,100496.78
2022-08-27T19:37:31.088Z,100500.66
2022-08-27T19:39:58.405Z,100505.38
2022-08-27T19:42:25.278Z,100501.47
2022-08-27T19:44:52.310Z,100504.34
2022-08-27T19:47:25.598Z,100496.13
2022-08-27T19:49:53.814Z,100502.88
2022-08-27T19:52:21.065Z,100508.63
2022-08-27T19:55:10.256Z,100507.00
2022-08-27T19:57:35.960Z,100514.97
2022-08-27T20:00:05.529Z,100506.19
2022-08-27T20:02:32.381Z,100510.06
2022-08-27T20:05:16.911Z,100509.22
2022-08-27T20:07:44.477Z,100527.81
2022-08-27T20:10:11.358Z,100523.25
2022-08-27T20:12:38.350Z,100526.16
2022-08-27T20:15:07.211Z,100525.78
2022-08-27T20:17:35.315Z,100529.81
2022-08-27T20:20:02.404Z,100527.81
2022-08-27T20:22:29.296Z,100528.88
2022-08-27T20:24:56.158Z,100532.56
2022-08-27T20:27:23.210Z,100541.09
2022-08-27T20:29:50.095Z,100541.72
2022-08-27T20:32:17.035Z,100550.84
2022-08-27T20:34:44.328Z,100546.25
2022-08-27T20:37:11.621Z,100557.78
2022-08-27T20:39:38.749Z,100554.63
2022-08-27T20:42:06.092Z,100555.25
2022-08-27T20:44:33.009Z,100552.56
2022-08-27T20:47:02.503Z,100556.69
2022-08-27T20:49:29.837Z,100560.78
2022-08-27T20:52:03.033Z,100566.72
2022-08-27T20:54:33.668Z,100564.88
2022-08-27T20:57:01.101Z,100565.88
2022-08-27T20:59:46.872Z,100572.34
2022-08-27T21:02:16.188Z,100567.22
2022-08-27T21:04:46.489Z,100565.97
2022-08-27T21:07:18.026Z,100561.88
2022-08-27T21:09:56.380Z,100568.47
2022-08-27T21:12:28.656Z,100562.56
2022-08-27T21:14:56.745Z,100559.88
2022-08-27T21:17:27.673Z,100564.78
2022-08-27T21:19:55.787Z,100563.72
2022-08-27T21:22:24.496Z,100564.66
2022-08-27T21:24:52.152Z,100565.34
2022-08-27T21:27:21.236Z,100567.41
2022-08-27T21:29:48.636Z,100565.56
2022-08-27T21:32:16.273Z,100569.69
2022-08-27T21:34:43.320Z,100569.16
2022-08-27T21:37:13.570Z,100570.22
2022-08-27T21:39:42.783Z,100571.66
2022-08-27T21:42:12.282Z,100570.78
2022-08-27T21:44:39.795Z,100562.31
2022-08-27T21:47:06.997Z,100580.28
2022-08-27T21:49:34.532Z,100573.03
2022-08-27T21:52:06.153Z,100577.34
2022-08-27T21:54:37.495Z,100573.19
2022-08-27T21:57:06.551Z,100572.47
2022-08-27T21:59:40.662Z,100577.31
2022-08-27T22:02:28.821Z,100573.13
2022-08-27T22:04:55.396Z,100576.69
2022-08-27T22:07:24.150Z,100575.41
2022-08-27T22:09:51.013Z,100567.84
2022-08-27T22:12:17.888Z,100570.50
2022-08-27T22:14:44.749Z,100564.13
2022-08-27T22:17:15.590Z,100562.81
2022-08-27T22:19:42.934Z,100558.72
2022-08-27T22:22:09.828Z,100561.31
2022-08-27T22:24:36.796Z,100560.75
2022-08-27T22:27:03.929Z,100556.44
2022-08-27T22:29:30.821Z,100564.44
2022-08-27T22:31:57.731Z,100565.28
2022-08-27T22:34:24.582Z,100561.09
2022-08-27T22:36:51.509Z,100556.38
2022-08-27T22:39:18.503Z,100550.41
2022-08-27T22:41:48.597Z,100556.59
2022-08-27T22:44:16.104Z,100548.59
2022-08-27T22:46:43.198Z,100547.75
2022-08-27T22:49:10.141Z,100549.16
2022-08-27T22:51:37.052Z,100547.34
2022-08-27T22:54:04.071Z,100552.66
2022-08-27T22:56:31.027Z,100553.28
2022-08-27T22:58:57.906Z,100554.66
2022-08-27T23:01:25.046Z,100546.38
2022-08-27T23:03:53.841Z,100549.97
2022-08-27T23:06:20.955Z,100551.69
2022-08-27T23:08:48.181Z,100542.31
2022-08-27T23:11:15.972Z,100547.94
2022-08-27T23:13:42.851Z,100537.31
2022-08-27T23:16:10.070Z,100539.84
2022-08-27T23:18:38.848Z,100546.16
2022-08-27T23:21:06.613Z,100557.44
2022-08-27T23:23:34.709Z,100556.22
2022-08-27T23:26:20.454Z,100556.94
2022-08-27T23:28:47.694Z,100563.16
2022-08-27T23:31:15.318Z,100559.06
2022-08-27T23:33:42.814Z,100555.41
2022-08-27T23:36:09.958Z,100564.88
2022-08-27T23:38:37.387Z,100559.19
2022-08-27T23:41:05.614Z,100561.94
2022-08-27T23:43:32.436Z,100563.84
2022-08-27T23:45:59.462Z,100565.38
2022-08-27T23:48:26.727Z,100565.63
2022-08-27T23:50:53.634Z,100562.44
2022-08-27T23:53:20.634Z,100566.00
2022-08-27T23:55:47.616Z,100576.78
2022-08-27T23:58:14.871Z,100578.78
